createdAt,value
2022-09-14T00:01:21.251Z,11.79
2022-09-14T00:03:45.625Z,11.77
2022-09-14T00:06:14.438Z,11.78
2022-09-14T00:08:42.013Z,11.74
2022-09-14T00:11:12.848Z,11.68
2022-09-14T00:13:41.443Z,11.60
2022-09-14T00:16:20.636Z,11.52
2022-09-14T00:18:55.699Z,11.43
2022-09-14T00:21:23.375Z,11.42
2022-09-14T00:23:50.515Z,11.42
2022-09-14T00:26:19.402Z,11.39
2022-09-14T00:28:51.082Z,11.34
2022-09-14T00:31:18.774Z,11.27
2022-09-14T00:33:51.500Z,11.21
2022-09-14T00:36:19.481Z,11.16
2022-09-14T00:38:47.062Z,11.17
2022-09-14T00:41:19.092Z,11.21
2022-09-14T00:44:00.990Z,11.21
2022-09-14T00:46:30.144Z,11.18
2022-09-14T00:48:59.694Z,11.13
2022-09-14T00:51:27.966Z,11.07
2022-09-14T00:53:55.522Z,11.07
2022-09-14T00:56:22.588Z,11.09
2022-09-14T00:58:50.533Z,11.08
2022-09-14T01:01:17.747Z,11.03
2022-09-14T01:03:44.900Z,10.97
2022-09-14T01:06:31.559Z,10.91
2022-09-14T01:09:32.804Z,10.85
2022-09-14T01:12:15.845Z,10.87
2022-09-14T01:14:49.014Z,10.90
2022-09-14T01:17:23.026Z,10.89
2022-09-14T01:20:17.717Z,10.84
2022-09-14T01:23:04.168Z,10.78
2022-09-14T01:25:37.826Z,10.74
2022-09-14T01:28:10.102Z,10.78
2022-09-14T01:30:37.043Z,10.83
2022-09-14T01:33:16.595Z,10.84
2022-09-14T01:35:49.563Z,10.80
2022-09-14T01:38:41.293Z,10.77
2022-09-14T01:41:10.693Z,10.70
2022-09-14T01:43:43.253Z,10.64
2022-09-14T01:46:10.362Z,10.65
2022-09-14T01:48:43.158Z,10.69
2022-09-14T01:51:12.932Z,10.70
2022-09-14T01:54:19.910Z,10.67
2022-09-14T01:56:54.320Z,10.62
2022-09-14T01:59:24.475Z,10.58
2022-09-14T02:01:56.558Z,10.60
2022-09-14T02:04:36.881Z,10.64
2022-09-14T02:07:04.000Z,10.64
2022-09-14T02:09:31.069Z,10.61
2022-09-14T02:12:00.991Z,10.57
2022-09-14T02:14:28.122Z,10.51
2022-09-14T02:16:55.261Z,10.46
2022-09-14T02:19:23.912Z,10.47
2022-09-14T02:21:51.400Z,10.51
2022-09-14T02:24:18.653Z,10.52
2022-09-14T02:26:46.037Z,10.49
2022-09-14T02:29:13.167Z,10.45
2022-09-14T02:32:02.323Z,10.41
2022-09-14T02:34:57.635Z,10.36
2022-09-14T02:37:28.366Z,10.38
2022-09-14T02:40:10.950Z,10.41
2022-09-14T02:42:44.090Z,10.41
2022-09-14T02:45:29.957Z,10.37
2022-09-14T02:48:12.774Z,10.31
2022-09-14T02:50:58.574Z,10.24
2022-09-14T02:53:36.667Z,10.18
2022-09-14T02:56:08.118Z,10.20
2022-09-14T02:58:36.801Z,10.24
2022-09-14T03:01:04.788Z,10.25
2022-09-14T03:03:35.441Z,10.22
2022-09-14T03:06:03.273Z,10.19
2022-09-14T03:08:30.416Z,10.16
2022-09-14T03:10:57.467Z,10.18
2022-09-14T03:13:24.921Z,10.22
2022-09-14T03:15:52.450Z,10.23
2022-09-14T03:18:19.739Z,10.22
2022-09-14T03:20:46.887Z,10.21
2022-09-14T03:23:14.544Z,10.20
2022-09-14T03:25:44.954Z,10.27
2022-09-14T03:28:12.347Z,10.38
2022-09-14T03:30:39.684Z,10.46
2022-09-14T03:33:06.740Z,10.51
2022-09-14T03:35:36.527Z,10.56
2022-09-14T03:38:03.893Z,10.61
2022-09-14T03:40:31.106Z,10.72
2022-09-14T03:42:58.334Z,10.84
2022-09-14T03:45:25.482Z,10.93
2022-09-14T03:47:52.556Z,10.99
2022-09-14T03:50:20.159Z,11.04
2022-09-14T03:52:47.335Z,11.13
2022-09-14T03:55:14.348Z,11.22
2022-09-14T03:57:41.395Z,11.27
2022-09-14T04:00:09.265Z,11.26
2022-09-14T04:02:40.163Z,11.25
2022-09-14T04:05:07.867Z,11.23
2022-09-14T04:07:35.012Z,11.26
2022-09-14T04:10:05.984Z,11.31
2022-09-14T04:12:37.226Z,11.33
2022-09-14T04:15:08.024Z,11.30
2022-09-14T04:17:35.490Z,11.26
2022-09-14T04:20:03.150Z,11.21
2022-09-14T04:22:30.302Z,11.21
2022-09-14T04:24:57.355Z,11.25
2022-09-14T04:30:06.309Z,11.25
2022-09-14T04:32:34.520Z,11.22
2022-09-14T04:35:02.033Z,11.21
2022-09-14T04:37:31.441Z,11.27
2022-09-14T04:39:58.770Z,11.35
2022-09-14T04:42:25.930Z,11.39
2022-09-14T04:44:52.982Z,11.39
2022-09-14T04:47:20.028Z,11.40
2022-09-14T04:49:47.124Z,11.40
2022-09-14T04:52:14.150Z,11.48
2022-09-14T04:54:41.197Z,11.61
2022-09-14T04:57:08.347Z,11.72
2022-09-14T04:59:35.366Z,11.82
2022-09-14T05:02:02.465Z,11.92
2022-09-14T05:04:29.558Z,12.06
2022-09-14T05:06:56.730Z,12.21
2022-09-14T05:09:23.860Z,12.33
2022-09-14T05:11:52.042Z,12.40
2022-09-14T05:14:19.178Z,12.48
2022-09-14T05:16:48.364Z,12.61
2022-09-14T05:19:17.674Z,12.77
2022-09-14T05:21:44.826Z,12.92
2022-09-14T05:24:17.390Z,13.05
2022-09-14T05:26:45.175Z,13.23
2022-09-14T05:29:13.672Z,13.48
2022-09-14T05:31:40.851Z,13.76
2022-09-14T05:34:09.892Z,13.99
2022-09-14T05:36:37.965Z,14.18
2022-09-14T05:39:06.051Z,14.36
2022-09-14T05:41:33.082Z,14.56
2022-09-14T05:44:00.233Z,14.76
2022-09-14T05:46:27.364Z,14.91
2022-09-14T05:48:54.835Z,15.03
2022-09-14T05:51:23.317Z,15.15
2022-09-14T05:53:53.248Z,15.34
2022-09-14T05:56:21.207Z,15.57
2022-09-14T05:58:48.701Z,15.82
2022-09-14T06:01:23.852Z,16.07
2022-09-14T06:03:54.017Z,16.32
2022-09-14T06:06:21.267Z,16.53
2022-09-14T06:08:52.515Z,16.72
2022-09-14T06:11:25.092Z,16.92
2022-09-14T06:13:52.563Z,17.10
2022-09-14T06:16:20.416Z,17.22
2022-09-14T06:18:47.908Z,17.30
2022-09-14T06:21:16.975Z,17.33
2022-09-14T06:23:44.419Z,17.35
2022-09-14T06:26:11.676Z,17.38
2022-09-14T06:28:38.823Z,17.43
2022-09-14T06:31:07.864Z,17.49
2022-09-14T06:33:35.284Z,17.57
2022-09-14T06:36:12.363Z,17.64
2022-09-14T06:38:40.620Z,17.76
2022-09-14T06:41:09.533Z,17.96
2022-09-14T06:43:39.231Z,18.20
2022-09-14T06:46:21.856Z,18.43
2022-09-14T06:48:51.040Z,18.70
2022-09-14T06:51:24.387Z,18.98
2022-09-14T06:53:51.895Z,19.25
2022-09-14T06:56:19.046Z,19.47
2022-09-14T06:58:46.241Z,19.63
2022-09-14T07:01:15.932Z,19.78
2022-09-14T07:03:47.397Z,19.94
2022-09-14T07:06:21.169Z,20.10
2022-09-14T07:08:48.747Z,20.29
2022-09-14T07:11:19.041Z,20.48
2022-09-14T07:13:46.493Z,20.71
2022-09-14T07:16:14.159Z,20.96
2022-09-14T07:18:41.645Z,21.24
2022-09-14T07:21:17.600Z,21.56
2022-09-14T07:23:45.745Z,21.90
2022-09-14T07:26:16.685Z,22.33
2022-09-14T07:28:45.717Z,22.64
2022-09-14T07:31:21.737Z,22.94
2022-09-14T07:33:49.248Z,23.12
2022-09-14T07:36:16.862Z,23.20
2022-09-14T07:38:53.146Z,23.25
2022-09-14T07:41:21.598Z,23.23
2022-09-14T07:43:51.635Z,23.18
2022-09-14T07:46:19.469Z,23.16
2022-09-14T07:48:47.448Z,23.18
2022-09-14T07:51:14.909Z,23.22
2022-09-14T07:53:43.298Z,23.27
2022-09-14T07:56:11.367Z,23.33
2022-09-14T07:58:38.824Z,23.41
2022-09-14T08:01:09.335Z,23.49
2022-09-14T08:03:36.598Z,23.62
2022-09-14T08:06:09.036Z,23.81
2022-09-14T08:08:37.451Z,24.02
2022-09-14T08:11:15.595Z,24.26
2022-09-14T08:13:46.391Z,24.50
2022-09-14T08:16:13.505Z,24.70
2022-09-14T08:18:40.680Z,24.87
2022-09-14T08:21:10.421Z,25.10
2022-09-14T08:23:37.855Z,25.44
2022-09-14T08:26:10.437Z,25.81
2022-09-14T08:28:38.813Z,26.16
2022-09-14T08:31:21.305Z,26.44
2022-09-14T08:33:49.699Z,26.66
2022-09-14T08:36:18.385Z,26.77
2022-09-14T08:38:45.455Z,26.83
2022-09-14T08:41:26.449Z,26.80
2022-09-14T08:43:53.830Z,26.72
2022-09-14T08:46:31.149Z,26.76
2022-09-14T08:48:58.402Z,26.86
2022-09-14T08:51:25.474Z,26.99
2022-09-14T08:53:52.907Z,27.20
2022-09-14T08:56:23.695Z,27.32
2022-09-14T08:59:00.526Z,27.39
2022-09-14T09:01:46.422Z,27.46
2022-09-14T09:04:32.599Z,27.60
2022-09-14T09:07:11.631Z,27.85
2022-09-14T09:09:40.828Z,28.07
2022-09-14T09:12:12.380Z,28.27
2022-09-14T09:14:41.578Z,28.54
2022-09-14T09:17:15.791Z,28.79
2022-09-14T09:20:10.015Z,29.00
2022-09-14T09:23:08.182Z,29.20
2022-09-14T09:25:56.916Z,29.49
2022-09-14T09:28:26.540Z,29.65
2022-09-14T09:30:54.278Z,29.60
2022-09-14T09:33:24.746Z,29.45
2022-09-14T09:36:15.510Z,29.12
2022-09-14T09:38:42.666Z,28.79
2022-09-14T09:41:27.422Z,28.51
2022-09-14T09:43:59.491Z,28.38
2022-09-14T09:46:38.188Z,28.50
2022-09-14T09:49:19.284Z,28.72
2022-09-14T09:51:46.537Z,28.87
2022-09-14T09:54:19.760Z,28.84
2022-09-14T09:56:57.345Z,28.72
2022-09-14T09:59:35.736Z,28.55
2022-09-14T10:02:29.393Z,28.32
2022-09-14T10:05:10.374Z,28.09
2022-09-14T10:07:58.828Z,27.91
2022-09-14T10:10:40.425Z,27.74
2022-09-14T10:13:18.113Z,27.54
2022-09-14T10:15:49.245Z,27.28
2022-09-14T10:18:18.556Z,27.07
2022-09-14T10:21:09.741Z,27.01
2022-09-14T10:23:38.354Z,27.15
2022-09-14T10:26:14.539Z,27.32
2022-09-14T10:28:48.639Z,27.42
2022-09-14T10:31:20.897Z,27.48
2022-09-14T10:33:53.986Z,27.53
2022-09-14T10:36:29.900Z,27.57
2022-09-14T10:39:00.779Z,27.58
2022-09-14T10:41:40.170Z,27.50
2022-09-14T10:44:21.805Z,27.42
2022-09-14T10:47:10.009Z,27.41
2022-09-14T10:50:15.710Z,27.45
2022-09-14T10:53:29.242Z,27.44
2022-09-14T10:56:20.247Z,27.44
2022-09-14T10:59:02.144Z,27.45
2022-09-14T11:01:51.493Z,27.41
2022-09-14T11:04:49.644Z,27.28
2022-09-14T11:07:43.902Z,27.13
2022-09-14T11:10:17.125Z,26.93
2022-09-14T11:12:47.145Z,26.78
2022-09-14T11:15:17.160Z,26.63
2022-09-14T11:18:12.919Z,26.49
2022-09-14T11:20:46.558Z,26.33
2022-09-14T11:23:37.869Z,26.23
2022-09-14T11:26:13.999Z,26.17
2022-09-14T11:28:47.832Z,26.20
2022-09-14T11:31:30.746Z,26.28
2022-09-14T11:34:04.937Z,26.41
2022-09-14T11:36:39.844Z,26.61
2022-09-14T11:39:23.934Z,26.88
2022-09-14T11:42:08.574Z,27.15
2022-09-14T11:44:42.832Z,27.35
2022-09-14T11:47:18.639Z,27.42
2022-09-14T11:50:00.851Z,27.39
2022-09-14T11:52:30.206Z,27.30
2022-09-14T11:54:59.663Z,27.17
2022-09-14T11:57:29.195Z,27.05
2022-09-14T12:00:12.695Z,26.98
2022-09-14T12:02:44.321Z,26.96
2022-09-14T12:05:11.604Z,26.99
2022-09-14T12:07:47.868Z,27.07
2022-09-14T12:10:19.239Z,27.25
2022-09-14T12:13:17.641Z,27.41
2022-09-14T12:15:45.458Z,27.52
2022-09-14T12:18:22.848Z,27.53
2022-09-14T12:21:00.546Z,27.52
2022-09-14T12:23:40.088Z,27.53
2022-09-14T12:26:12.970Z,27.61
2022-09-14T12:28:48.439Z,27.65
2022-09-14T12:31:49.969Z,27.64
2022-09-14T12:34:24.184Z,27.47
2022-09-14T12:36:51.232Z,27.27
2022-09-14T12:39:24.061Z,27.06
2022-09-14T12:41:51.067Z,26.81
2022-09-14T12:44:36.984Z,26.58
2022-09-14T12:47:26.153Z,26.30
2022-09-14T12:49:58.059Z,26.09
2022-09-14T12:52:33.322Z,25.94
2022-09-14T12:55:06.679Z,25.80
2022-09-14T12:57:57.518Z,25.67
2022-09-14T13:00:27.019Z,25.51
2022-09-14T13:03:21.714Z,25.38
2022-09-14T13:05:49.094Z,25.27
2022-09-14T13:08:20.625Z,25.15
2022-09-14T13:10:48.181Z,25.05
2022-09-14T13:13:20.873Z,24.93
2022-09-14T13:15:52.684Z,24.80
2022-09-14T13:18:19.814Z,24.65
2022-09-14T13:20:57.174Z,24.54
2022-09-14T13:23:41.775Z,24.46
2022-09-14T13:26:34.465Z,24.36
2022-09-14T13:29:01.949Z,24.31
2022-09-14T13:31:32.249Z,24.28
2022-09-14T13:33:59.395Z,24.22
2022-09-14T13:36:28.520Z,24.13
2022-09-14T13:38:55.951Z,24.04
2022-09-14T13:41:23.148Z,23.98
2022-09-14T13:43:52.521Z,23.91
2022-09-14T13:46:20.596Z,23.84
2022-09-14T13:48:48.088Z,23.75
2022-09-14T13:51:15.135Z,23.67
2022-09-14T13:53:49.994Z,23.57
2022-09-14T13:56:33.545Z,23.48
2022-09-14T13:59:12.681Z,23.38
2022-09-14T14:01:41.394Z,23.29
2022-09-14T14:04:23.866Z,23.18
2022-09-14T14:07:12.522Z,23.05
2022-09-14T14:09:53.007Z,22.94
2022-09-14T14:12:27.330Z,22.82
2022-09-14T14:15:02.551Z,22.69
2022-09-14T14:17:29.521Z,22.60
2022-09-14T14:19:58.470Z,22.50
2022-09-14T14:22:25.560Z,22.40
2022-09-14T14:27:44.765Z,22.20
2022-09-14T14:30:20.844Z,22.09
2022-09-14T14:32:55.205Z,21.99
2022-09-14T14:35:50.041Z,21.90
2022-09-14T14:38:18.900Z,21.79
2022-09-14T14:40:55.608Z,21.71
2022-09-14T14:43:52.751Z,21.63
2022-09-14T14:46:20.276Z,21.51
2022-09-14T14:48:57.127Z,21.39
2022-09-14T14:55:54.529Z,21.12
2022-09-14T14:58:22.172Z,20.92
2022-09-14T15:01:10.833Z,20.77
2022-09-14T15:03:40.400Z,20.60
2022-09-14T15:06:16.113Z,20.46
2022-09-14T15:08:43.494Z,20.32
2022-09-14T15:11:18.194Z,20.20
2022-09-14T15:13:46.275Z,20.07
2022-09-14T15:16:14.174Z,19.96
2022-09-14T15:18:41.586Z,19.86
2022-09-14T15:21:08.837Z,19.78
2022-09-14T15:23:35.998Z,19.70
2022-09-14T15:26:03.134Z,19.63
2022-09-14T15:28:31.103Z,19.62
2022-09-14T15:30:58.664Z,19.63
2022-09-14T15:33:25.712Z,19.61
2022-09-14T15:35:57.060Z,19.57
2022-09-14T15:38:24.614Z,19.51
2022-09-14T15:40:51.661Z,19.45
2022-09-14T15:43:18.736Z,19.39
2022-09-14T15:45:45.905Z,19.30
2022-09-14T15:48:14.964Z,19.27
2022-09-14T15:50:44.049Z,19.25
2022-09-14T15:53:12.315Z,19.21
2022-09-14T15:55:41.148Z,19.15
2022-09-14T15:58:13.283Z,19.08
2022-09-14T16:00:43.183Z,19.00
2022-09-14T16:03:10.265Z,18.92
2022-09-14T16:05:38.920Z,18.91
2022-09-14T16:08:06.078Z,18.91
2022-09-14T16:10:33.229Z,18.89
2022-09-14T16:13:00.583Z,18.83
2022-09-14T16:15:27.631Z,18.77
2022-09-14T16:17:55.778Z,18.71
2022-09-14T16:20:22.869Z,18.64
2022-09-14T16:22:50.202Z,18.62
2022-09-14T16:25:17.357Z,18.61
2022-09-14T16:27:45.424Z,18.57
2022-09-14T16:30:13.187Z,18.53
2022-09-14T16:32:40.257Z,18.47
2022-09-14T16:35:08.621Z,18.41
2022-09-14T16:37:35.867Z,18.36
2022-09-14T16:40:03.820Z,18.36
2022-09-14T16:42:30.987Z,18.36
2022-09-14T16:47:38.391Z,18.33
2022-09-14T16:50:05.989Z,18.25
2022-09-14T16:52:35.658Z,18.19
2022-09-14T16:55:02.596Z,18.17
2022-09-14T16:57:30.162Z,18.18
2022-09-14T17:00:06.018Z,18.17
2022-09-14T17:02:33.161Z,18.13
2022-09-14T17:05:00.381Z,18.10
2022-09-14T17:07:27.465Z,18.05
2022-09-14T17:09:54.932Z,18.06
2022-09-14T17:12:21.969Z,18.08
2022-09-14T17:14:49.324Z,18.08
2022-09-14T17:17:16.477Z,18.06
2022-09-14T17:19:43.905Z,18.03
2022-09-14T17:22:11.070Z,18.00
2022-09-14T17:24:38.741Z,17.99
2022-09-14T17:27:05.917Z,18.01
2022-09-14T17:29:35.807Z,18.00
2022-09-14T17:32:02.897Z,17.97
2022-09-14T17:34:30.003Z,17.92
2022-09-14T17:36:58.967Z,17.87
2022-09-14T17:39:26.079Z,17.86
2022-09-14T17:41:53.192Z,17.89
2022-09-14T17:44:20.264Z,17.88
2022-09-14T17:46:52.562Z,17.85
2022-09-14T17:49:22.577Z,17.82
2022-09-14T17:51:50.649Z,17.79
2022-09-14T17:54:18.669Z,17.80
2022-09-14T17:56:46.124Z,17.82
2022-09-14T17:59:15.637Z,17.80
2022-09-14T18:01:42.779Z,17.77
2022-09-14T18:04:12.286Z,17.73
2022-09-14T18:06:43.882Z,17.68
2022-09-14T18:09:16.846Z,17.69
2022-09-14T18:11:44.180Z,17.72
2022-09-14T18:14:13.015Z,17.71
2022-09-14T18:16:40.294Z,17.68
2022-09-14T18:19:07.882Z,17.63
2022-09-14T18:21:35.049Z,17.64
2022-09-14T18:24:02.894Z,17.67
2022-09-14T18:26:30.081Z,17.67
2022-09-14T18:29:00.997Z,17.65
2022-09-14T18:31:28.223Z,17.63
2022-09-14T18:33:59.439Z,17.65
2022-09-14T18:36:29.439Z,17.68
2022-09-14T18:38:58.730Z,17.65
2022-09-14T18:41:26.052Z,17.61
2022-09-14T18:43:53.629Z,17.58
2022-09-14T18:46:24.471Z,17.59
2022-09-14T18:48:55.588Z,17.62
2022-09-14T18:51:22.640Z,17.60
2022-09-14T18:53:49.729Z,17.56
2022-09-14T18:56:18.028Z,17.51
2022-09-14T18:58:46.997Z,17.47
2022-09-14T19:01:14.218Z,17.47
2022-09-14T19:03:42.688Z,17.49
2022-09-14T19:06:14.554Z,17.49
2022-09-14T19:08:42.308Z,17.46
2022-09-14T19:11:14.475Z,17.43
2022-09-14T19:13:41.853Z,17.45
2022-09-14T19:16:13.543Z,17.48
2022-09-14T19:18:41.247Z,17.48
2022-09-14T19:21:13.211Z,17.45
2022-09-14T19:23:40.705Z,17.40
2022-09-14T19:26:09.820Z,17.36
2022-09-14T19:28:36.965Z,17.36
2022-09-14T19:31:12.624Z,17.38
2022-09-14T19:33:44.503Z,17.37
2022-09-14T19:36:27.756Z,17.35
2022-09-14T19:38:58.892Z,17.32
2022-09-14T19:41:26.205Z,17.33
2022-09-14T19:43:53.403Z,17.32
2022-09-14T19:46:23.609Z,17.30
2022-09-14T19:48:51.389Z,17.26
2022-09-14T19:51:23.356Z,17.21
2022-09-14T19:53:51.262Z,17.21
2022-09-14T19:56:20.384Z,17.22
2022-09-14T19:58:50.964Z,17.17
2022-09-14T20:01:19.179Z,17.10
2022-09-14T20:03:46.841Z,17.06
2022-09-14T20:06:43.522Z,17.06
2022-09-14T20:09:19.062Z,17.09
2022-09-14T20:11:47.205Z,17.07
2022-09-14T20:14:16.227Z,17.04
2022-09-14T20:16:45.123Z,17.02
2022-09-14T20:19:17.185Z,17.04
2022-09-14T20:24:57.075Z,17.04
2022-09-14T20:27:26.724Z,16.99
2022-09-14T20:30:10.137Z,16.95
2022-09-14T20:32:51.391Z,16.96
2022-09-14T20:35:18.881Z,16.99
2022-09-14T20:37:50.145Z,17.00
2022-09-14T20:40:17.448Z,16.99
2022-09-14T20:42:44.553Z,16.94
2022-09-14T20:45:12.159Z,16.92
2022-09-14T20:47:39.993Z,16.92
2022-09-14T20:50:08.111Z,16.91
2022-09-14T20:52:35.960Z,16.90
2022-09-14T20:55:03.113Z,16.87
2022-09-14T20:57:32.615Z,16.89
2022-09-14T21:00:00.188Z,16.91
2022-09-14T21:02:33.507Z,16.90
2022-09-14T21:05:00.641Z,16.87
2022-09-14T21:07:27.770Z,16.83
2022-09-14T21:09:55.036Z,16.84
2022-09-14T21:12:22.201Z,16.88
2022-09-14T21:14:52.393Z,16.87
2022-09-14T21:17:19.672Z,16.85
2022-09-14T21:22:31.799Z,16.84
2022-09-14T21:24:58.834Z,16.89
2022-09-14T21:27:25.862Z,16.89
2022-09-14T21:29:54.789Z,16.85
2022-09-14T21:32:23.631Z,16.78
2022-09-14T21:34:52.057Z,16.80
2022-09-14T21:37:20.088Z,16.83
2022-09-14T21:39:48.814Z,16.82
2022-09-14T21:42:15.962Z,16.80
2022-09-14T21:44:43.082Z,16.76
2022-09-14T21:47:10.122Z,16.78
2022-09-14T21:49:37.183Z,16.82
2022-09-14T21:52:04.320Z,16.83
2022-09-14T21:54:31.398Z,16.82
2022-09-14T21:56:58.823Z,16.80
2022-09-14T21:59:26.098Z,16.81
2022-09-14T22:01:53.354Z,16.84
2022-09-14T22:04:22.748Z,16.84
2022-09-14T22:06:51.608Z,16.82
2022-09-14T22:09:19.889Z,16.78
2022-09-14T22:11:47.333Z,16.78
2022-09-14T22:14:20.148Z,16.82
2022-09-14T22:16:47.692Z,16.83
2022-09-14T22:19:26.997Z,16.80
2022-09-14T22:21:54.594Z,16.75
2022-09-14T22:24:37.927Z,16.77
2022-09-14T22:27:07.827Z,16.81
2022-09-14T22:29:34.906Z,16.81
2022-09-14T22:32:02.536Z,16.78
2022-09-14T22:34:29.585Z,16.75
2022-09-14T22:36:56.833Z,16.76
2022-09-14T22:39:24.110Z,16.80
2022-09-14T22:41:51.441Z,16.82
2022-09-14T22:44:18.532Z,16.80
2022-09-14T22:46:46.354Z,16.75
2022-09-14T22:49:13.707Z,16.76
2022-09-14T22:51:43.146Z,16.79
2022-09-14T22:54:14.972Z,16.79
2022-09-14T22:56:42.016Z,16.76
2022-09-14T22:59:09.884Z,16.73
2022-09-14T23:01:39.984Z,16.73
2022-09-14T23:04:09.346Z,16.75
2022-09-14T23:06:38.880Z,16.74
2022-09-14T23:09:06.879Z,16.71
2022-09-14T23:11:33.832Z,16.68
2022-09-14T23:14:00.972Z,16.70
2022-09-14T23:16:29.630Z,16.73
2022-09-14T23:19:02.650Z,16.72
2022-09-14T23:21:31.225Z,16.67
2022-09-14T23:24:04.110Z,16.61
2022-09-14T23:26:31.574Z,16.60
2022-09-14T23:29:00.474Z,16.62
2022-09-14T23:31:30.276Z,16.62
2022-09-14T23:33:59.315Z,16.58
2022-09-14T23:36:26.517Z,16.54
2022-09-14T23:38:53.564Z,16.56
2022-09-14T23:41:22.147Z,16.60
2022-09-14T23:43:49.538Z,16.60
2022-09-14T23:46:17.427Z,16.58
2022-09-14T23:48:44.620Z,16.56
2022-09-14T23:51:12.184Z,16.59
2022-09-14T23:53:39.375Z,16.63
2022-09-14T23:56:06.788Z,16.60
2022-09-14T23:58:33.834Z,16.52
